Time;durP1;ratioP1;P1;durP2;ratioP2;P2;SDS_P1;SDS_P2;PMS_P1;PMS_P2;Temp;Humidity;BMP_temperature;BMP_pressure;BME280_temperature;BME280_humidity;BME280_pressure;Samples;Min_cycle;Max_cycle;Signal;HPM_P1;HPM_P2
2023/04/18 00:01:17;;;;;;;3.67;2.08;;;;;;;;;;2051492;28;20039;-60
2023/04/18 00:02:37;;;;;;;2.10;1.90;;;;;;;;;;2053543;28;20023;-60
2023/04/18 00:03:56;;;;;;;6.80;2.20;;;;;;;;;;2052303;28;20228;-60
2023/04/18 00:05:17;;;;;;;2.25;1.98;;;;;;;;;;2053168;28;20050;-60
2023/04/18 00:06:36;;;;;;;2.28;1.88;;;;;;;;;;2054439;28;20492;-60
2023/04/18 00:07:55;;;;;;;5.53;2.05;;;;;;;;;;2054048;28;20026;-60
2023/04/18 00:09:14;;;;;;;3.38;2.20;;;;;;;;;;2053466;28;20038;-60
2023/04/18 00:10:33;;;;;;;1.63;1.52;;;;;;;;;;2055041;28;20480;-60
2023/04/18 00:11:53;;;;;;;4.50;2.03;;;;;;;;;;2053630;28;20035;-60
2023/04/18 00:13:12;;;;;;;3.95;1.83;;;;;;;;;;2053812;28;20518;-61
2023/04/18 00:14:33;;;;;;;5.45;1.70;;;;;;;;;;2056009;28;20035;-60
2023/04/18 00:15:53;;;;;;;3.20;1.52;;;;;;;;;;2051500;28;20030;-60
2023/04/18 00:17:13;;;;;;;2.33;2.13;;;;;;;;;;2055259;28;20043;-60
2023/04/18 00:18:32;;;;;;;1.98;1.88;;;;;;;;;;2052130;28;20031;-60
2023/04/18 00:19:51;;;;;;;3.80;1.80;;;;;;;;;;2057308;28;20022;-60
2023/04/18 00:21:12;;;;;;;3.97;1.88;;;;;;;;;;2055209;28;20067;-60
2023/04/18 00:22:31;;;;;;;5.07;2.10;;;;;;;;;;2053049;28;21389;-60
2023/04/18 00:23:50;;;;;;;2.75;2.08;;;;;;;;;;2052669;28;20039;-60
2023/04/18 00:25:10;;;;;;;2.85;1.90;;;;;;;;;;2054280;28;20392;-60
2023/04/18 00:26:29;;;;;;;3.75;2.00;;;;;;;;;;2053610;28;20031;-62
2023/04/18 00:27:48;;;;;;;2.65;2.10;;;;;;;;;;2050869;28;20035;-62
2023/04/18 00:29:06;;;;;;;2.92;2.58;;;;;;;;;;2054053;28;20468;-60
2023/04/18 00:30:25;;;;;;;6.82;1.90;;;;;;;;;;2053769;28;20039;-60
2023/04/18 00:31:45;;;;;;;2.33;2.00;;;;;;;;;;2053662;28;20054;-60
2023/04/18 00:33:04;;;;;;;4.63;1.80;;;;;;;;;;2054457;28;20113;-60
2023/04/18 00:34:23;;;;;;;2.30;2.08;;;;;;;;;;2054151;28;20522;-60
2023/04/18 00:35:42;;;;;;;2.00;1.90;;;;;;;;;;2055440;28;20031;-60
2023/04/18 00:37:01;;;;;;;3.35;1.83;;;;;;;;;;2054833;28;20500;-61
2023/04/18 00:38:20;;;;;;;2.42;2.22;;;;;;;;;;2054218;28;20122;-60
2023/04/18 00:39:39;;;;;;;1.95;1.75;;;;;;;;;;2054690;28;20043;-60
2023/04/18 00:40:58;;;;;;;2.35;1.92;;;;;;;;;;2054654;28;20054;-61
2023/04/18 00:42:18;;;;;;;2.72;1.95;;;;;;;;;;2054929;28;20038;-60
2023/04/18 00:43:36;;;;;;;3.20;2.17;;;;;;;;;;2054831;28;20039;-60
2023/04/18 00:44:55;;;;;;;8.00;2.00;;;;;;;;;;2054168;28;20019;-60
2023/04/18 00:46:14;;;;;;;3.70;2.20;;;;;;;;;;2054738;28;21011;-60
2023/04/18 00:47:33;;;;;;;2.13;1.83;;;;;;;;;;2054265;28;20481;-60
2023/04/18 00:48:52;;;;;;;6.10;2.28;;;;;;;;;;2053807;28;20019;-60
2023/04/18 00:50:12;;;;;;;1.98;1.75;;;;;;;;;;2053216;28;20105;-59
2023/04/18 00:51:32;;;;;;;3.15;2.45;;;;;;;;;;2052848;28;20031;-61
2023/04/18 00:52:52;;;;;;;2.40;1.98;;;;;;;;;;2053382;28;20110;-60
2023/04/18 00:54:12;;;;;;;5.75;2.17;;;;;;;;;;2054266;28;20027;-60
2023/04/18 00:55:31;;;;;;;2.90;2.05;;;;;;;;;;2053530;28;20031;-60
2023/04/18 00:56:50;;;;;;;2.50;2.30;;;;;;;;;;2054398;28;21621;-61
2023/04/18 00:58:10;;;;;;;3.17;1.83;;;;;;;;;;2053712;28;20460;-61
2023/04/18 00:59:29;;;;;;;2.15;1.92;;;;;;;;;;2055878;28;20062;-60
2023/04/18 01:00:49;;;;;;;2.63;2.10;;;;;;;;;;2050595;28;20531;-60
2023/04/18 01:02:08;;;;;;;2.55;1.90;;;;;;;;;;2054172;28;20477;-59
2023/04/18 01:03:27;;;;;;;5.22;2.10;;;;;;;;;;2053167;28;20050;-60
2023/04/18 01:04:46;;;;;;;4.32;2.08;;;;;;;;;;2053525;28;20031;-60
2023/04/18 01:06:05;;;;;;;4.82;2.38;;;;;;;;;;2055410;28;20475;-60
2023/04/18 01:07:25;;;;;;;2.78;2.20;;;;;;;;;;2052558;28;20039;-60
2023/04/18 01:08:44;;;;;;;1.88;1.77;;;;;;;;;;2052116;28;20023;-60
2023/04/18 01:10:03;;;;;;;2.70;1.65;;;;;;;;;;2053684;28;20031;-60
2023/04/18 01:11:22;;;;;;;5.82;1.90;;;;;;;;;;2052196;28;20034;-60
2023/04/18 01:12:41;;;;;;;5.45;2.28;;;;;;;;;;2051882;28;20016;-61
2023/04/18 01:14:01;;;;;;;2.28;1.80;;;;;;;;;;2054287;28;20615;-60
2023/04/18 01:15:20;;;;;;;3.65;2.15;;;;;;;;;;2052514;28;20035;-60
2023/04/18 01:16:39;;;;;;;2.85;1.92;;;;;;;;;;2054261;28;20042;-60
2023/04/18 01:17:58;;;;;;;5.85;2.40;;;;;;;;;;2052311;28;20039;-59
2023/04/18 01:19:18;;;;;;;3.88;2.10;;;;;;;;;;2053486;28;20039;-60
2023/04/18 01:20:42;;;;;;;3.05;2.13;;;;;;;;;;2053553;28;20158;-60
2023/04/18 01:22:01;;;;;;;2.17;2.00;;;;;;;;;;2054120;28;20035;-61
2023/04/18 01:23:20;;;;;;;2.20;2.00;;;;;;;;;;2055718;28;20034;-60
2023/04/18 01:24:39;;;;;;;2.88;1.90;;;;;;;;;;2054292;28;20738;-60
2023/04/18 01:25:59;;;;;;;4.97;2.13;;;;;;;;;;2054196;28;20035;-61
2023/04/18 01:27:18;;;;;;;2.78;2.20;;;;;;;;;;2053211;28;20388;-60
2023/04/18 01:28:37;;;;;;;3.70;2.00;;;;;;;;;;2054349;28;20042;-60
2023/04/18 01:29:56;;;;;;;3.88;1.98;;;;;;;;;;2054810;28;20031;-60
2023/04/18 01:31:15;;;;;;;2.25;1.88;;;;;;;;;;2052143;28;20034;-60
2023/04/18 01:32:34;;;;;;;5.63;1.90;;;;;;;;;;2054496;28;20608;-60
2023/04/18 01:33:52;;;;;;;6.07;2.42;;;;;;;;;;2050927;28;20121;-60
2023/04/18 01:35:11;;;;;;;3.70;2.10;;;;;;;;;;2055820;28;20563;-60
2023/04/18 01:36:31;;;;;;;2.83;2.05;;;;;;;;;;2052908;28;20043;-61
2023/04/18 01:37:50;;;;;;;3.45;1.75;;;;;;;;;;2054144;28;20035;-60
2023/04/18 01:39:09;;;;;;;4.68;2.45;;;;;;;;;;2053996;28;20062;-60
2023/04/18 01:40:29;;;;;;;2.75;1.83;;;;;;;;;;2053595;28;20035;-61
2023/04/18 01:41:48;;;;;;;2.00;1.90;;;;;;;;;;2050545;28;20599;-63
2023/04/18 01:43:07;;;;;;;2.35;1.95;;;;;;;;;;2054510;28;20185;-59
2023/04/18 01:44:26;;;;;;;4.57;2.03;;;;;;;;;;2054276;28;20502;-59
2023/04/18 01:45:45;;;;;;;2.35;2.22;;;;;;;;;;2055638;28;20023;-60
2023/04/18 01:47:04;;;;;;;2.58;2.33;;;;;;;;;;2053774;28;20054;-60
2023/04/18 01:48:23;;;;;;;2.70;2.25;;;;;;;;;;2054635;28;20031;-59
2023/04/18 01:49:46;;;;;;;3.00;2.13;;;;;;;;;;2052710;28;20121;-61
2023/04/18 01:51:05;;;;;;;3.03;2.00;;;;;;;;;;2052027;28;20822;-59
2023/04/18 01:52:26;;;;;;;2.67;2.28;;;;;;;;;;2051827;28;20058;-60
2023/04/18 01:53:45;;;;;;;7.78;1.92;;;;;;;;;;2052871;28;20031;-59
2023/04/18 01:55:05;;;;;;;3.92;1.95;;;;;;;;;;2053497;28;20027;-58
2023/04/18 01:56:24;;;;;;;1.88;1.70;;;;;;;;;;2052766;28;20035;-60
2023/04/18 01:57:43;;;;;;;2.20;1.95;;;;;;;;;;2052707;28;20860;-59
2023/04/18 01:59:02;;;;;;;2.42;2.10;;;;;;;;;;2054576;28;20047;-59
2023/04/18 02:00:21;;;;;;;5.45;2.10;;;;;;;;;;2054464;28;20031;-59
2023/04/18 02:01:40;;;;;;;3.97;2.03;;;;;;;;;;2052550;28;20396;-60
2023/04/18 02:02:59;;;;;;;2.92;1.75;;;;;;;;;;2052834;28;20058;-59
2023/04/18 02:04:18;;;;;;;2.83;2.13;;;;;;;;;;2055949;28;20039;-60
2023/04/18 02:05:37;;;;;;;2.72;2.20;;;;;;;;;;2053685;28;20031;-62
2023/04/18 02:06:55;;;;;;;6.00;2.10;;;;;;;;;;2050764;28;20027;-62
2023/04/18 02:08:15;;;;;;;3.55;2.00;;;;;;;;;;2054320;28;20106;-60
2023/04/18 02:09:34;;;;;;;1.95;1.85;;;;;;;;;;2053988;28;20427;-60
2023/04/18 02:10:52;;;;;;;5.20;2.10;;;;;;;;;;2052053;28;20141;-60
2023/04/18 02:12:11;;;;;;;2.13;1.95;;;;;;;;;;2053599;28;20352;-59
2023/04/18 02:13:30;;;;;;;6.57;2.20;;;;;;;;;;2050659;28;20050;-59
2023/04/18 02:14:51;;;;;;;3.45;2.10;;;;;;;;;;2053271;28;20031;-59
2023/04/18 02:16:11;;;;;;;2.60;2.22;;;;;;;;;;2053170;28;20034;-59
2023/04/18 02:17:30;;;;;;;2.13;1.88;;;;;;;;;;2053188;28;20028;-59
2023/04/18 02:18:51;;;;;;;2.72;1.83;;;;;;;;;;2055285;28;20444;-59
2023/04/18 02:20:12;;;;;;;2.45;2.13;;;;;;;;;;2054765;28;20023;-60
2023/04/18 02:21:31;;;;;;;5.32;2.53;;;;;;;;;;2054273;28;20035;-60
2023/04/18 02:22:50;;;;;;;1.90;1.80;;;;;;;;;;2051358;28;20031;-61
2023/04/18 02:24:09;;;;;;;2.22;2.00;;;;;;;;;;2052739;28;20096;-60
2023/04/18 02:25:28;;;;;;;4.65;1.98;;;;;;;;;;2050252;28;20035;-60
2023/04/18 02:26:46;;;;;;;3.90;2.20;;;;;;;;;;2053556;28;20032;-59
2023/04/18 02:28:05;;;;;;;2.35;2.08;;;;;;;;;;2053910;28;20031;-59
2023/04/18 02:29:24;;;;;;;3.60;2.40;;;;;;;;;;2051860;28;20113;-59
2023/04/18 02:30:43;;;;;;;2.28;2.08;;;;;;;;;;2049893;28;20026;-61
2023/04/18 02:32:02;;;;;;;4.07;2.00;;;;;;;;;;2054127;28;20027;-61
2023/04/18 02:33:21;;;;;;;6.13;2.03;;;;;;;;;;2051670;28;20027;-59
2023/04/18 02:34:40;;;;;;;3.78;2.25;;;;;;;;;;2053550;28;20656;-60
2023/04/18 02:36:00;;;;;;;2.20;2.00;;;;;;;;;;2052463;28;20031;-64
2023/04/18 02:37:19;;;;;;;4.57;2.10;;;;;;;;;;2053586;28;20031;-59
2023/04/18 02:38:38;;;;;;;2.05;1.95;;;;;;;;;;2054313;28;20046;-60
2023/04/18 02:39:57;;;;;;;6.80;2.42;;;;;;;;;;2053463;28;20026;-60
2023/04/18 02:41:18;;;;;;;4.20;2.40;;;;;;;;;;2049648;28;20533;-61
2023/04/18 02:42:37;;;;;;;2.00;1.88;;;;;;;;;;2054321;28;20676;-59
2023/04/18 02:43:56;;;;;;;8.05;2.00;;;;;;;;;;2049656;28;20637;-62
2023/04/18 02:45:15;;;;;;;6.93;2.22;;;;;;;;;;2050934;28;20023;-61
2023/04/18 02:46:34;;;;;;;5.10;2.00;;;;;;;;;;2053416;28;20027;-60
2023/04/18 02:47:53;;;;;;;4.43;2.25;;;;;;;;;;2055186;28;20054;-60
2023/04/18 02:49:12;;;;;;;2.50;2.30;;;;;;;;;;2053482;28;20484;-60
2023/04/18 02:50:30;;;;;;;3.88;2.33;;;;;;;;;;2054813;28;20492;-60
2023/04/18 02:51:52;;;;;;;2.17;1.90;;;;;;;;;;2053315;28;20031;-59
2023/04/18 02:53:11;;;;;;;3.00;2.17;;;;;;;;;;2054088;28;20023;-60
2023/04/18 02:54:30;;;;;;;5.03;2.38;;;;;;;;;;2055753;28;20054;-59
2023/04/18 02:55:49;;;;;;;3.13;2.30;;;;;;;;;;2055395;28;20064;-59
2023/04/18 02:57:09;;;;;;;2.83;2.28;;;;;;;;;;2056948;28;20035;-61
2023/04/18 02:58:28;;;;;;;3.13;2.10;;;;;;;;;;2055443;28;20031;-59
2023/04/18 02:59:47;;;;;;;2.10;2.00;;;;;;;;;;2050951;28;20035;-60
2023/04/18 03:01:06;;;;;;;2.95;2.38;;;;;;;;;;2054605;28;20023;-59
2023/04/18 03:02:25;;;;;;;4.93;2.40;;;;;;;;;;2055836;28;20042;-59
2023/04/18 03:03:44;;;;;;;3.08;1.98;;;;;;;;;;2055404;28;20051;-58
2023/04/18 03:05:04;;;;;;;2.10;2.00;;;;;;;;;;2055567;28;20471;-59
2023/04/18 03:06:23;;;;;;;3.22;1.80;;;;;;;;;;2053972;28;20114;-59
2023/04/18 03:07:42;;;;;;;2.85;2.05;;;;;;;;;;2053366;28;20031;-60
2023/04/18 03:09:02;;;;;;;3.38;2.42;;;;;;;;;;2053350;28;20671;-59
2023/04/18 03:10:21;;;;;;;2.13;1.92;;;;;;;;;;2055096;28;20028;-60
2023/04/18 03:11:40;;;;;;;5.25;2.03;;;;;;;;;;2056021;28;20035;-60
2023/04/18 03:12:59;;;;;;;2.20;1.95;;;;;;;;;;2056828;28;20106;-60
2023/04/18 03:14:19;;;;;;;2.50;2.05;;;;;;;;;;2056159;28;20027;-59
2023/04/18 03:15:38;;;;;;;4.07;2.40;;;;;;;;;;2055811;28;20038;-59
2023/04/18 03:16:57;;;;;;;3.65;2.28;;;;;;;;;;2054195;28;20074;-62
2023/04/18 03:18:16;;;;;;;5.57;1.85;;;;;;;;;;2054878;28;20035;-61
2023/04/18 03:19:35;;;;;;;2.88;2.13;;;;;;;;;;2053474;28;20342;-60
2023/04/18 03:20:54;;;;;;;2.40;1.95;;;;;;;;;;2054000;28;20031;-59
2023/04/18 03:22:14;;;;;;;2.60;1.95;;;;;;;;;;2054676;28;20035;-59
2023/04/18 03:23:33;;;;;;;4.47;2.13;;;;;;;;;;2053674;28;20047;-60
2023/04/18 03:24:52;;;;;;;1.75;1.65;;;;;;;;;;2054303;28;20030;-59
2023/04/18 03:26:12;;;;;;;9.38;2.60;;;;;;;;;;2052766;28;20579;-60
2023/04/18 03:27:31;;;;;;;6.43;2.20;;;;;;;;;;2055358;28;20035;-60
2023/04/18 03:28:50;;;;;;;3.65;2.13;;;;;;;;;;2055208;28;20031;-59
2023/04/18 03:30:10;;;;;;;2.25;1.98;;;;;;;;;;2053771;28;20035;-60
2023/04/18 03:31:28;;;;;;;5.82;2.00;;;;;;;;;;2054274;28;20063;-60
2023/04/18 03:32:47;;;;;;;6.55;2.20;;;;;;;;;;2054581;28;20046;-60
2023/04/18 03:34:06;;;;;;;5.88;2.40;;;;;;;;;;2054456;28;20039;-59
2023/04/18 03:35:25;;;;;;;2.55;2.30;;;;;;;;;;2053949;28;20030;-60
2023/04/18 03:36:44;;;;;;;3.58;2.15;;;;;;;;;;2056046;28;20030;-60
2023/04/18 03:38:03;;;;;;;3.83;2.03;;;;;;;;;;2052777;28;20058;-59
2023/04/18 03:39:22;;;;;;;2.45;2.10;;;;;;;;;;2054472;28;20038;-60
2023/04/18 03:40:43;;;;;;;2.55;2.35;;;;;;;;;;2055875;28;20972;-59
2023/04/18 03:42:02;;;;;;;3.95;2.20;;;;;;;;;;2053571;28;20027;-59
2023/04/18 03:43:21;;;;;;;2.03;1.92;;;;;;;;;;2054359;28;20039;-59
2023/04/18 03:44:40;;;;;;;5.47;2.60;;;;;;;;;;2053749;28;20117;-59
2023/04/18 03:45:59;;;;;;;1.98;1.73;;;;;;;;;;2056182;28;20038;-59
2023/04/18 03:47:18;;;;;;;8.27;2.25;;;;;;;;;;2054313;28;20035;-60
2023/04/18 03:48:37;;;;;;;4.28;2.25;;;;;;;;;;2053670;28;20027;-60
2023/04/18 03:49:56;;;;;;;2.85;2.35;;;;;;;;;;2054637;28;20054;-59
2023/04/18 03:51:16;;;;;;;3.08;1.83;;;;;;;;;;2054059;28;20027;-60
2023/04/18 03:52:34;;;;;;;4.40;2.35;;;;;;;;;;2054354;28;20109;-59
2023/04/18 03:53:54;;;;;;;5.10;1.90;;;;;;;;;;2054866;28;20492;-60
2023/04/18 03:55:12;;;;;;;5.00;2.10;;;;;;;;;;2054709;28;20038;-59
2023/04/18 03:56:31;;;;;;;2.53;2.33;;;;;;;;;;2052980;28;20114;-61
2023/04/18 03:57:51;;;;;;;2.78;2.35;;;;;;;;;;2055223;28;20408;-60
2023/04/18 03:59:10;;;;;;;9.07;2.78;;;;;;;;;;2055549;28;20492;-59
2023/04/18 04:00:29;;;;;;;3.75;2.35;;;;;;;;;;2055524;28;20063;-60
2023/04/18 04:01:48;;;;;;;4.20;2.05;;;;;;;;;;2054938;28;20031;-59
2023/04/18 04:03:07;;;;;;;11.73;2.60;;;;;;;;;;2051715;28;20397;-59
2023/04/18 04:04:27;;;;;;;4.60;2.40;;;;;;;;;;2052815;28;20474;-59
2023/04/18 04:05:45;;;;;;;3.15;2.25;;;;;;;;;;2055008;28;20460;-60
2023/04/18 04:07:04;;;;;;;5.30;2.42;;;;;;;;;;2054164;28;20032;-65
2023/04/18 04:08:24;;;;;;;7.65;2.20;;;;;;;;;;2053794;28;20059;-60
2023/04/18 04:09:43;;;;;;;15.35;2.40;;;;;;;;;;2054623;28;20039;-60
2023/04/18 04:11:02;;;;;;;5.15;2.03;;;;;;;;;;2054064;28;20023;-59
2023/04/18 04:12:21;;;;;;;8.52;2.30;;;;;;;;;;2054285;28;20043;-59
2023/04/18 04:13:40;;;;;;;6.60;2.15;;;;;;;;;;2053557;28;20043;-60
2023/04/18 04:14:59;;;;;;;7.80;2.63;;;;;;;;;;2055795;28;20034;-59
2023/04/18 04:16:18;;;;;;;5.85;2.45;;;;;;;;;;2055841;28;20031;-59
2023/04/18 04:17:37;;;;;;;3.58;2.05;;;;;;;;;;2054056;28;20042;-59
2023/04/18 04:18:56;;;;;;;9.45;2.35;;;;;;;;;;2053041;28;20259;-60
2023/04/18 04:20:21;;;;;;;4.75;2.70;;;;;;;;;;2054804;28;20481;-59
2023/04/18 04:21:40;;;;;;;14.10;2.55;;;;;;;;;;2055428;28;20443;-59
2023/04/18 04:23:00;;;;;;;5.82;2.58;;;;;;;;;;2053885;28;20027;-59
2023/04/18 04:24:20;;;;;;;6.38;2.58;;;;;;;;;;2051376;28;20030;-59
2023/04/18 04:25:39;;;;;;;11.88;2.65;;;;;;;;;;2050477;28;20027;-59
2023/04/18 04:26:59;;;;;;;13.88;2.40;;;;;;;;;;2052311;28;20331;-59
2023/04/18 04:28:21;;;;;;;5.82;2.53;;;;;;;;;;2052975;28;20529;-59
2023/04/18 04:29:42;;;;;;;6.85;2.45;;;;;;;;;;2053887;28;20032;-59
2023/04/18 04:31:02;;;;;;;6.03;2.65;;;;;;;;;;2049265;28;20031;-59
2023/04/18 04:32:21;;;;;;;3.03;2.05;;;;;;;;;;2052585;28;20039;-59
2023/04/18 04:33:41;;;;;;;11.45;3.33;;;;;;;;;;2049508;28;20038;-60
2023/04/18 04:35:00;;;;;;;11.25;3.03;;;;;;;;;;2055535;28;20500;-59
2023/04/18 04:36:21;;;;;;;13.25;2.80;;;;;;;;;;2053485;28;20078;-59
2023/04/18 04:37:42;;;;;;;5.30;2.75;;;;;;;;;;2052876;28;20161;-59
2023/04/18 04:39:03;;;;;;;7.22;2.42;;;;;;;;;;2051787;28;20389;-59
2023/04/18 04:40:22;;;;;;;9.38;3.22;;;;;;;;;;2053995;28;20508;-60
2023/04/18 04:41:41;;;;;;;4.80;2.50;;;;;;;;;;2053722;28;20030;-59
2023/04/18 04:43:00;;;;;;;7.03;2.67;;;;;;;;;;2055636;28;20055;-59
2023/04/18 04:44:21;;;;;;;9.27;2.63;;;;;;;;;;2054436;28;20027;-60
2023/04/18 04:45:41;;;;;;;15.68;3.35;;;;;;;;;;2054835;28;20026;-60
2023/04/18 04:47:00;;;;;;;12.07;6.13;;;;;;;;;;2050577;28;20109;-60
2023/04/18 04:48:20;;;;;;;13.10;3.47;;;;;;;;;;2051161;28;20548;-59
2023/04/18 04:49:40;;;;;;;11.45;4.50;;;;;;;;;;2053772;28;20022;-60
2023/04/18 04:51:00;;;;;;;11.93;2.55;;;;;;;;;;2055892;28;20658;-60
2023/04/18 04:52:19;;;;;;;12.40;2.25;;;;;;;;;;2051498;28;20027;-60
2023/04/18 04:53:37;;;;;;;9.93;2.78;;;;;;;;;;2054660;28;20026;-61
2023/04/18 04:54:56;;;;;;;6.95;2.60;;;;;;;;;;2055659;28;20027;-61
2023/04/18 04:56:15;;;;;;;10.52;2.90;;;;;;;;;;2056344;28;20415;-60
2023/04/18 04:57:34;;;;;;;5.05;1.98;;;;;;;;;;2052981;28;20023;-63
2023/04/18 04:58:54;;;;;;;5.18;2.67;;;;;;;;;;2053973;28;20109;-61
2023/04/18 05:00:19;;;;;;;4.82;2.80;;;;;;;;;;2054970;28;20019;-61
2023/04/18 05:01:38;;;;;;;12.23;2.70;;;;;;;;;;2054636;28;20035;-60
2023/04/18 05:02:57;;;;;;;8.38;2.33;;;;;;;;;;2054946;28;20027;-61
2023/04/18 05:04:16;;;;;;;7.70;2.47;;;;;;;;;;2053595;28;20075;-62
2023/04/18 05:05:35;;;;;;;6.43;2.47;;;;;;;;;;2053544;28;20026;-62
2023/04/18 05:06:55;;;;;;;18.58;3.22;;;;;;;;;;2048968;28;20117;-61
2023/04/18 05:08:14;;;;;;;9.27;3.60;;;;;;;;;;2055221;28;20024;-60
2023/04/18 05:09:33;;;;;;;9.77;3.03;;;;;;;;;;2056043;28;20500;-60
2023/04/18 05:10:52;;;;;;;18.80;3.58;;;;;;;;;;2052795;28;20034;-61
2023/04/18 05:12:11;;;;;;;28.42;4.97;;;;;;;;;;2046878;28;20102;-60
2023/04/18 05:13:30;;;;;;;18.92;4.35;;;;;;;;;;2052400;28;20030;-60
2023/04/18 05:14:49;;;;;;;16.75;3.85;;;;;;;;;;2051851;28;20038;-61
2023/04/18 05:16:08;;;;;;;17.02;4.13;;;;;;;;;;2053241;28;20035;-60
2023/04/18 05:17:27;;;;;;;20.33;4.22;;;;;;;;;;2052519;28;20038;-61
2023/04/18 05:18:46;;;;;;;11.88;3.00;;;;;;;;;;2053572;28;20031;-62
2023/04/18 05:20:06;;;;;;;6.07;2.72;;;;;;;;;;2053109;28;20058;-61
2023/04/18 05:21:26;;;;;;;9.95;2.63;;;;;;;;;;2053376;28;20039;-61
2023/04/18 05:22:45;;;;;;;9.52;2.60;;;;;;;;;;2053201;28;20050;-60
2023/04/18 05:24:04;;;;;;;12.00;2.90;;;;;;;;;;2054249;28;20031;-61
2023/04/18 05:25:23;;;;;;;4.63;2.65;;;;;;;;;;2052529;28;20054;-61
2023/04/18 05:26:42;;;;;;;10.45;2.92;;;;;;;;;;2051317;28;20020;-62
2023/04/18 05:28:03;;;;;;;12.77;3.00;;;;;;;;;;2053259;28;20547;-60
2023/04/18 05:29:22;;;;;;;19.08;3.30;;;;;;;;;;2054155;28;20030;-61
2023/04/18 05:30:41;;;;;;;10.43;2.38;;;;;;;;;;2054528;28;20027;-61
2023/04/18 05:32:00;;;;;;;6.90;2.42;;;;;;;;;;2051372;28;20512;-61
2023/04/18 05:33:19;;;;;;;14.18;2.83;;;;;;;;;;2054601;28;20508;-62
2023/04/18 05:34:38;;;;;;;4.85;2.03;;;;;;;;;;2051765;28;20027;-62
2023/04/18 05:35:57;;;;;;;9.85;2.50;;;;;;;;;;2053387;28;20030;-66
2023/04/18 05:37:16;;;;;;;7.10;2.97;;;;;;;;;;2054966;28;20499;-61
2023/04/18 05:38:35;;;;;;;13.38;2.97;;;;;;;;;;2053246;28;20488;-61
2023/04/18 05:39:54;;;;;;;11.48;2.63;;;;;;;;;;2052937;28;20030;-62
2023/04/18 05:41:13;;;;;;;11.43;3.10;;;;;;;;;;2053622;28;20424;-61
2023/04/18 05:42:32;;;;;;;12.10;3.50;;;;;;;;;;2050390;28;20031;-61
2023/04/18 05:43:51;;;;;;;16.27;3.03;;;;;;;;;;2053770;28;20039;-62
2023/04/18 05:45:10;;;;;;;15.52;3.83;;;;;;;;;;2052843;28;20484;-62
2023/04/18 05:46:29;;;;;;;21.45;4.03;;;;;;;;;;2050993;28;20035;-60
2023/04/18 05:47:47;;;;;;;5.88;2.05;;;;;;;;;;2049306;28;20022;-62
2023/04/18 05:49:06;;;;;;;6.18;2.38;;;;;;;;;;2053944;28;20031;-61
2023/04/18 05:50:25;;;;;;;10.73;2.40;;;;;;;;;;2053736;28;20113;-61
2023/04/18 05:51:45;;;;;;;12.77;3.08;;;;;;;;;;2055749;28;20035;-61
2023/04/18 05:53:04;;;;;;;8.63;3.13;;;;;;;;;;2051040;28;20019;-61
2023/04/18 05:54:24;;;;;;;9.95;3.03;;;;;;;;;;2052287;28;20035;-59
2023/04/18 05:55:45;;;;;;;17.25;3.10;;;;;;;;;;2054430;28;20034;-61
2023/04/18 05:57:04;;;;;;;10.45;3.00;;;;;;;;;;2049715;28;20034;-62
2023/04/18 05:58:23;;;;;;;11.88;2.67;;;;;;;;;;2056748;28;20117;-63
2023/04/18 05:59:42;;;;;;;7.45;1.90;;;;;;;;;;2055208;28;20066;-61
2023/04/18 06:01:01;;;;;;;9.65;2.13;;;;;;;;;;2052528;28;20031;-62
2023/04/18 06:02:20;;;;;;;4.72;2.42;;;;;;;;;;2053884;28;20485;-61
2023/04/18 06:03:40;;;;;;;6.60;2.10;;;;;;;;;;2052754;28;20480;-61
2023/04/18 06:04:58;;;;;;;9.48;2.50;;;;;;;;;;2053711;28;20047;-61
2023/04/18 06:06:17;;;;;;;7.38;2.63;;;;;;;;;;2053824;28;20381;-61
2023/04/18 06:07:36;;;;;;;13.95;2.30;;;;;;;;;;2053577;28;20023;-61
2023/04/18 06:08:55;;;;;;;10.43;2.25;;;;;;;;;;2054493;28;20023;-61
2023/04/18 06:10:14;;;;;;;6.47;2.30;;;;;;;;;;2052971;28;20489;-61
2023/04/18 06:11:34;;;;;;;11.05;2.90;;;;;;;;;;2055120;28;20038;-61
2023/04/18 06:12:53;;;;;;;12.77;2.90;;;;;;;;;;2054832;28;20109;-62
2023/04/18 06:14:12;;;;;;;16.58;2.85;;;;;;;;;;2054814;28;20027;-61
2023/04/18 06:15:31;;;;;;;21.17;3.58;;;;;;;;;;2052964;28;20027;-65
2023/04/18 06:16:50;;;;;;;8.15;2.67;;;;;;;;;;2054204;28;20034;-63
2023/04/18 06:18:09;;;;;;;13.07;3.03;;;;;;;;;;2055216;28;20027;-61
2023/04/18 06:19:28;;;;;;;28.13;3.58;;;;;;;;;;2055940;28;20030;-61
2023/04/18 06:20:47;;;;;;;22.27;2.58;;;;;;;;;;2049440;28;20031;-61
2023/04/18 06:22:06;;;;;;;4.95;2.28;;;;;;;;;;2051991;28;20030;-62
2023/04/18 06:23:25;;;;;;;8.98;1.85;;;;;;;;;;2053101;28;20523;-62
2023/04/18 06:24:44;;;;;;;12.20;2.58;;;;;;;;;;2054305;28;20468;-61
2023/04/18 06:26:03;;;;;;;5.78;1.90;;;;;;;;;;2052741;28;20039;-61
2023/04/18 06:27:21;;;;;;;12.13;2.67;;;;;;;;;;2054317;28;20035;-61
2023/04/18 06:28:40;;;;;;;10.27;2.35;;;;;;;;;;2054653;28;20026;-62
2023/04/18 06:29:59;;;;;;;17.63;2.53;;;;;;;;;;2052953;28;20039;-61
2023/04/18 06:31:18;;;;;;;11.07;2.30;;;;;;;;;;2052068;28;20035;-60
2023/04/18 06:32:37;;;;;;;16.48;2.45;;;;;;;;;;2053130;28;20062;-61
2023/04/18 06:33:56;;;;;;;8.18;2.20;;;;;;;;;;2054605;28;20079;-61
2023/04/18 06:35:15;;;;;;;30.83;4.72;;;;;;;;;;2054050;28;20031;-61
2023/04/18 06:36:35;;;;;;;27.85;3.17;;;;;;;;;;2054551;28;20035;-61
2023/04/18 06:37:54;;;;;;;16.50;2.72;;;;;;;;;;2055461;28;20035;-61
2023/04/18 06:39:14;;;;;;;10.38;2.50;;;;;;;;;;2053813;28;20106;-62
2023/04/18 06:40:33;;;;;;;6.57;2.17;;;;;;;;;;2056043;28;20023;-64
2023/04/18 06:41:52;;;;;;;8.40;2.58;;;;;;;;;;2054700;28;20493;-61
2023/04/18 06:43:11;;;;;;;9.80;2.33;;;;;;;;;;2052750;28;20026;-63
2023/04/18 06:44:34;;;;;;;9.30;2.45;;;;;;;;;;2052964;28;20035;-62
2023/04/18 06:45:53;;;;;;;;;;;;;;;;;;2053075;28;20113;-61
2023/04/18 06:47:15;;;;;;;4.32;1.83;;;;;;;;;;2054014;28;19910;-61
2023/04/18 06:48:33;;;;;;;8.65;2.65;;;;;;;;;;2053877;28;20031;-61
2023/04/18 06:49:52;;;;;;;5.28;1.83;;;;;;;;;;2052492;28;20027;-61
2023/04/18 06:51:11;;;;;;;7.93;1.83;;;;;;;;;;2054418;28;20031;-63
2023/04/18 06:52:30;;;;;;;10.18;1.80;;;;;;;;;;2054172;28;20030;-61
2023/04/18 06:53:51;;;;;;;16.25;3.00;;;;;;;;;;2053438;28;20031;-60
2023/04/18 06:55:11;;;;;;;8.98;2.35;;;;;;;;;;2052498;28;20538;-61
2023/04/18 06:56:30;;;;;;;10.95;3.00;;;;;;;;;;2053907;28;20113;-61
2023/04/18 06:57:49;;;;;;;12.13;2.47;;;;;;;;;;2054442;28;20408;-61
2023/04/18 06:59:08;;;;;;;10.13;2.10;;;;;;;;;;2053035;28;20369;-62
2023/04/18 07:00:27;;;;;;;12.20;2.60;;;;;;;;;;2052643;28;20038;-63
2023/04/18 07:01:46;;;;;;;15.35;2.45;;;;;;;;;;2054302;28;20031;-61
2023/04/18 07:03:08;;;;;;;10.40;2.10;;;;;;;;;;2053849;28;20027;-62
2023/04/18 07:04:27;;;;;;;15.40;2.47;;;;;;;;;;2054261;28;20034;-61
2023/04/18 07:05:47;;;;;;;9.80;2.72;;;;;;;;;;2053599;28;20396;-60
2023/04/18 07:07:06;;;;;;;3.25;1.80;;;;;;;;;;2053398;28;20493;-62
2023/04/18 07:08:25;;;;;;;11.68;2.08;;;;;;;;;;2051575;28;20169;-61
2023/04/18 07:09:44;;;;;;;22.30;3.08;;;;;;;;;;2054071;28;20023;-61
2023/04/18 07:11:03;;;;;;;9.15;2.60;;;;;;;;;;2052611;28;20040;-61
2023/04/18 07:12:22;;;;;;;7.35;2.00;;;;;;;;;;2052294;28;20027;-61
2023/04/18 07:13:41;;;;;;;15.75;1.80;;;;;;;;;;2054496;28;20031;-61
2023/04/18 07:15:00;;;;;;;11.10;2.63;;;;;;;;;;2051719;28;20023;-63
2023/04/18 07:16:20;;;;;;;12.82;2.42;;;;;;;;;;2053923;28;20032;-61
2023/04/18 07:17:38;;;;;;;16.27;1.90;;;;;;;;;;2054482;28;20047;-61
2023/04/18 07:18:57;;;;;;;18.55;2.53;;;;;;;;;;2054118;28;20023;-61
2023/04/18 07:20:16;;;;;;;13.32;2.40;;;;;;;;;;2052638;28;20027;-61
2023/04/18 07:21:36;;;;;;;10.60;1.67;;;;;;;;;;2055355;28;20043;-62
2023/04/18 07:22:55;;;;;;;4.90;1.67;;;;;;;;;;2054191;28;20508;-61
2023/04/18 07:24:14;;;;;;;13.43;2.17;;;;;;;;;;2054088;28;20035;-62
2023/04/18 07:25:33;;;;;;;20.48;2.70;;;;;;;;;;2053446;28;20047;-60
2023/04/18 07:26:52;;;;;;;14.02;2.33;;;;;;;;;;2055030;28;20392;-60
2023/04/18 07:28:11;;;;;;;14.25;2.17;;;;;;;;;;2054633;28;20031;-60
2023/04/18 07:29:30;;;;;;;11.65;1.95;;;;;;;;;;2052665;28;20035;-60
2023/04/18 07:30:50;;;;;;;10.55;1.90;;;;;;;;;;2054454;28;20035;-60
2023/04/18 07:32:09;;;;;;;33.88;3.10;;;;;;;;;;2053961;28;20027;-60
2023/04/18 07:33:32;;;;;;;9.88;2.45;;;;;;;;;;2052436;28;20504;-60
2023/04/18 07:34:51;;;;;;;11.95;2.05;;;;;;;;;;2053292;28;20428;-60
2023/04/18 07:36:11;;;;;;;1.80;1.58;;;;;;;;;;2053837;28;20439;-60
2023/04/18 07:37:30;;;;;;;10.10;2.17;;;;;;;;;;2052463;28;20087;-60
2023/04/18 07:38:50;;;;;;;4.53;1.65;;;;;;;;;;2054587;28;20031;-60
2023/04/18 07:40:10;;;;;;;5.15;1.70;;;;;;;;;;2053320;28;20099;-59
2023/04/18 07:41:29;;;;;;;5.00;1.92;;;;;;;;;;2053534;28;20110;-60
2023/04/18 07:42:49;;;;;;;3.28;1.60;;;;;;;;;;2055405;28;20098;-60
2023/04/18 07:44:08;;;;;;;7.15;1.70;;;;;;;;;;2054767;28;20031;-61
2023/04/18 07:45:27;;;;;;;5.07;1.55;;;;;;;;;;2054026;28;20039;-60
2023/04/18 07:46:46;;;;;;;12.90;1.55;;;;;;;;;;2055564;28;20039;-60
2023/04/18 07:48:05;;;;;;;13.52;2.58;;;;;;;;;;2056345;28;20101;-60
2023/04/18 07:49:24;;;;;;;12.43;1.88;;;;;;;;;;2053966;28;20034;-61
2023/04/18 07:50:43;;;;;;;13.23;1.98;;;;;;;;;;2056489;28;20058;-61
2023/04/18 07:52:03;;;;;;;4.93;1.60;;;;;;;;;;2053538;28;20058;-60
2023/04/18 07:53:22;;;;;;;5.43;1.75;;;;;;;;;;2052543;28;20035;-64
2023/04/18 07:54:41;;;;;;;7.25;1.95;;;;;;;;;;2052668;28;20030;-60